METAR Data
IDs: Format: Raw Decoded Include TAF

Data at: 1941 UTC 21 Sep 2021

KELD 211932Z AUTO 26006KT 10SM VCTS SCT100 31/23 A3001 RMK AO2 LTG DSNT ALQDS TSB11E26 T03060233
KELD 211911Z AUTO 27004KT 10SM TS OVC100 30/23 A3003 RMK AO2 LTG DSNT N TSB11 T03000228
KELD 211853Z AUTO 26007KT 10SM OVC100 31/23 A3003 RMK AO2 LTG DSNT SW-N SLP164 T03110233
KELD 211753Z AUTO 28007KT 10SM BKN080 31/23 A3005 RMK AO2 SLP171 T03110233 10311 20217 50002
KELD 211653Z AUTO 27004KT 10SM BKN075 29/23 A3005 RMK AO2 SLP173 T02940233
KELD 211553Z AUTO 27005KT 10SM OVC070 28/23 A3006 RMK AO2 SLP175 T02830233
KELD 211453Z AUTO 23004KT 10SM SCT085 27/24 A3004 RMK AO2 SLP169 T02720239 51020
KELD 211353Z AUTO 21004KT 8SM BKN080 25/23 A3003 RMK AO2 SLP165 T02500233
KELD 211253Z AUTO 00000KT 3SM BR OVC070 23/22 A3002 RMK AO2 SLP162 T02280222
KELD 211212Z AUTO 15003KT 3SM BR CLR 22/22 A2999 RMK AO2 T02220217
KELD 211202Z AUTO 16003KT 2 1/2SM BR CLR 22/22 A2999 RMK AO2 VIS 1 1/4V4 T02170217
KELD 211153Z AUTO 00000KT 3SM BR CLR 22/22 A2998 RMK AO2 SLP149 T02170217 10233 20217 53018
KELD 211053Z AUTO 17004KT 5SM BR CLR 22/22 A2995 RMK AO2 SLP137 T02220217
KELD 210953Z AUTO 17004KT 5SM BR CLR 22/22 A2993 RMK AO2 SLP132 T02220217
KELD 210853Z AUTO 17003KT 6SM BR CLR 22/22 A2993 RMK AO2 SLP131 T02220217 50002
KELD 210753Z AUTO 00000KT 7SM CLR 23/22 A2993 RMK AO2 SLP132 T02280217
KELD 210653Z AUTO 14004KT 8SM CLR 23/22 A2993 RMK AO2 SLP130 T02330217
KELD 210553Z AUTO 15004KT 9SM CLR 23/22 A2992 RMK AO2 SLP129 T02330217 10283 20228 403170200 50001
KELD 210453Z AUTO 16004KT 9SM CLR 23/22 A2993 RMK AO2 SLP131 T02330222
KELD 210353Z AUTO 17003KT 8SM CLR 23/22 A2993 RMK AO2 SLP130 T02280222
KELD 210253Z AUTO 11003KT 8SM CLR 23/22 A2992 RMK AO2 SLP128 T02280222 53012
KELD 210153Z AUTO 00000KT 9SM CLR 23/22 A2991 RMK AO2 SLP125 T02330222
KELD 210053Z AUTO 15003KT 10SM CLR 26/23 A2988 RMK AO2 SLP115 T02560228
KELD 202353Z AUTO 13004KT 10SM CLR 28/23 A2988 RMK AO2 SLP115 T02830228 10317 20283 55000
KELD 202253Z AUTO 13005KT 10SM CLR 31/22 A2988 RMK AO2 SLP113 T03060222
KELD 202153Z AUTO 18005KT 10SM CLR 32/22 A2988 RMK AO2 SLP112 T03170222
KELD 202053Z AUTO 11004KT 10SM FEW065 31/22 A2988 RMK AO2 SLP116 T03060222 56019
KELD 201953Z AUTO 22006KT 10SM CLR 31/22 A2990 RMK AO2 SLP120 T03060222